createdAt,value
2022-11-08T00:00:54.572Z,5.35
2022-11-08T00:03:21.311Z,5.26
2022-11-08T00:05:47.958Z,5.44
2022-11-08T00:08:14.853Z,5.20
2022-11-08T00:10:41.714Z,5.44
2022-11-08T00:13:08.289Z,5.36
2022-11-08T00:15:34.893Z,5.32
2022-11-08T00:18:01.482Z,5.34
2022-11-08T00:20:28.077Z,5.41
2022-11-08T00:22:54.725Z,5.52
2022-11-08T00:25:21.323Z,5.69
2022-11-08T00:27:47.928Z,5.85
2022-11-08T00:30:14.560Z,5.81
2022-11-08T00:32:41.135Z,5.66
2022-11-08T00:35:08.315Z,5.71
2022-11-08T00:37:34.892Z,5.38
2022-11-08T00:40:01.477Z,5.23
2022-11-08T00:42:28.079Z,5.37
2022-11-08T00:44:54.680Z,5.26
2022-11-08T00:47:21.261Z,5.38
2022-11-08T00:49:47.835Z,5.60
2022-11-08T00:52:14.438Z,5.63
2022-11-08T00:54:41.026Z,5.47
2022-11-08T00:57:07.633Z,5.59
2022-11-08T00:59:34.252Z,5.66
2022-11-08T01:02:00.933Z,5.58
2022-11-08T01:04:27.665Z,5.39
2022-11-08T01:06:54.249Z,5.81
2022-11-08T01:09:22.260Z,5.73
2022-11-08T01:11:48.826Z,5.67
2022-11-08T01:14:15.486Z,5.77
2022-11-08T01:16:42.867Z,5.63
2022-11-08T01:19:10.048Z,5.37
2022-11-08T01:21:37.179Z,5.37
2022-11-08T01:24:03.998Z,5.62
2022-11-08T01:26:30.599Z,5.12
2022-11-08T01:28:58.509Z,5.24
2022-11-08T01:31:30.811Z,5.06
2022-11-08T01:33:58.902Z,4.87
2022-11-08T01:36:27.511Z,5.17
2022-11-08T01:38:55.347Z,4.88
2022-11-08T01:41:24.099Z,4.88
2022-11-08T01:44:00.162Z,5.47
2022-11-08T01:46:34.677Z,5.44
2022-11-08T01:49:04.200Z,5.09
2022-11-08T01:51:38.001Z,5.40
2022-11-08T01:54:10.278Z,5.03
2022-11-08T01:56:38.726Z,4.79
2022-11-08T01:59:09.909Z,5.00
2022-11-08T02:01:37.164Z,5.14
2022-11-08T02:04:05.166Z,4.64
2022-11-08T02:06:35.488Z,4.72
2022-11-08T02:09:03.943Z,4.92
2022-11-08T02:11:30.800Z,5.26
2022-11-08T02:13:58.043Z,5.56
2022-11-08T02:16:24.633Z,5.37
2022-11-08T02:18:51.417Z,5.04
2022-11-08T02:21:36.518Z,5.11
2022-11-08T02:24:08.671Z,4.92
2022-11-08T02:26:36.776Z,5.03
2022-11-08T02:29:23.225Z,5.09
2022-11-08T02:31:49.997Z,4.88
2022-11-08T02:34:17.179Z,4.71
2022-11-08T02:36:47.626Z,4.67
2022-11-08T02:39:14.228Z,4.99
2022-11-08T02:41:40.839Z,4.73
2022-11-08T02:44:07.538Z,4.74
2022-11-08T02:46:34.131Z,5.29
2022-11-08T02:49:00.703Z,5.17
2022-11-08T02:51:27.277Z,4.88
2022-11-08T02:53:53.868Z,5.54
2022-11-08T02:56:20.574Z,5.12
2022-11-08T02:58:47.186Z,4.84
2022-11-08T03:01:13.912Z,5.07
2022-11-08T03:03:40.550Z,5.02
2022-11-08T03:06:07.166Z,4.74
2022-11-08T03:08:33.752Z,4.72
2022-11-08T03:11:00.834Z,4.95
2022-11-08T03:13:27.415Z,4.59
2022-11-08T03:15:54.008Z,4.87
2022-11-08T03:18:20.815Z,4.06
2022-11-08T03:20:47.594Z,3.94
2022-11-08T03:23:14.292Z,4.48
2022-11-08T03:25:40.863Z,4.64
2022-11-08T03:28:09.181Z,4.73
2022-11-08T03:30:36.502Z,4.81
2022-11-08T03:33:03.550Z,5.06
2022-11-08T03:35:30.279Z,4.96
2022-11-08T03:37:57.599Z,5.08
2022-11-08T03:40:25.283Z,4.75
2022-11-08T03:42:51.858Z,4.66
2022-11-08T03:45:18.618Z,4.65
2022-11-08T03:47:47.232Z,5.16
2022-11-08T03:50:15.582Z,5.18
2022-11-08T03:52:42.908Z,5.25
2022-11-08T03:55:10.469Z,5.54
2022-11-08T03:57:38.206Z,5.01
2022-11-08T04:00:06.583Z,4.75
2022-11-08T04:02:33.423Z,5.27
2022-11-08T04:05:00.296Z,5.31
2022-11-08T04:07:27.196Z,5.20
2022-11-08T04:09:54.127Z,5.10
2022-11-08T04:12:20.698Z,4.62
2022-11-08T04:14:47.266Z,4.05
2022-11-08T04:17:13.870Z,4.88
2022-11-08T04:19:40.543Z,4.91
2022-11-08T04:22:10.447Z,4.71
2022-11-08T04:24:37.076Z,4.68
2022-11-08T04:27:03.953Z,4.97
2022-11-08T04:29:30.711Z,5.06
2022-11-08T04:31:57.322Z,4.67
2022-11-08T04:34:23.966Z,4.51
2022-11-08T04:36:50.555Z,4.59
2022-11-08T04:39:17.279Z,4.71
2022-11-08T04:41:43.927Z,4.51
2022-11-08T04:44:10.500Z,4.90
2022-11-08T04:46:37.192Z,4.35
2022-11-08T04:49:03.866Z,4.65
2022-11-08T04:51:33.884Z,4.57
2022-11-08T04:54:02.287Z,4.68
2022-11-08T04:56:30.847Z,4.59
2022-11-08T04:58:59.662Z,4.26
2022-11-08T05:01:28.456Z,4.47
2022-11-08T05:03:55.606Z,5.01
2022-11-08T05:06:28.749Z,5.01
2022-11-08T05:08:56.186Z,4.47
2022-11-08T05:11:25.064Z,4.42
2022-11-08T05:13:53.268Z,4.17
2022-11-08T05:16:23.052Z,4.32
2022-11-08T05:18:51.183Z,4.37
2022-11-08T05:21:19.779Z,3.89
2022-11-08T05:23:48.355Z,4.08
2022-11-08T05:26:15.754Z,4.58
2022-11-08T05:28:42.358Z,4.60
2022-11-08T05:31:09.820Z,4.52
2022-11-08T05:33:36.798Z,4.62
2022-11-08T05:36:06.238Z,4.94
2022-11-08T05:38:33.716Z,4.46
2022-11-08T05:41:08.778Z,4.70
2022-11-08T05:43:35.724Z,4.00
2022-11-08T05:46:02.340Z,4.21
2022-11-08T05:48:28.923Z,3.95
2022-11-08T05:50:55.730Z,3.90
2022-11-08T05:53:22.454Z,3.52
2022-11-08T05:55:49.090Z,3.94
2022-11-08T05:58:16.265Z,3.98
2022-11-08T06:00:42.993Z,4.10
2022-11-08T06:03:09.659Z,4.10
2022-11-08T06:05:36.348Z,4.56
2022-11-08T06:08:02.990Z,4.54
2022-11-08T06:10:29.563Z,4.12
2022-11-08T06:13:00.193Z,3.86
2022-11-08T06:15:27.285Z,3.44
2022-11-08T06:17:53.915Z,4.03
2022-11-08T06:20:20.498Z,4.19
2022-11-08T06:22:47.866Z,4.31
2022-11-08T06:25:14.473Z,4.59
2022-11-08T06:27:41.063Z,4.95
2022-11-08T06:30:08.507Z,4.47
2022-11-08T06:32:35.258Z,4.47
2022-11-08T06:35:01.848Z,4.69
2022-11-08T06:37:28.516Z,4.74
2022-11-08T06:39:55.104Z,4.74
2022-11-08T06:42:21.779Z,4.92
2022-11-08T06:44:48.465Z,5.07
2022-11-08T06:47:15.062Z,4.99
2022-11-08T06:49:41.650Z,4.81
2022-11-08T06:52:08.341Z,5.04
2022-11-08T06:54:34.993Z,5.01
2022-11-08T06:57:01.542Z,4.95
2022-11-08T06:59:29.051Z,5.14
2022-11-08T07:01:55.818Z,5.15
2022-11-08T07:04:22.745Z,4.81
2022-11-08T07:06:49.313Z,4.87
2022-11-08T07:09:15.987Z,4.99
2022-11-08T07:11:42.632Z,5.08
2022-11-08T07:14:09.214Z,4.82
2022-11-08T07:16:35.820Z,5.09
2022-11-08T07:19:02.503Z,4.80
2022-11-08T07:21:29.085Z,5.01
2022-11-08T07:23:56.129Z,5.38
2022-11-08T07:26:22.738Z,4.98
2022-11-08T07:28:49.378Z,5.15
2022-11-08T07:31:16.070Z,5.34
2022-11-08T07:33:42.672Z,5.20
2022-11-08T07:36:09.363Z,5.35
2022-11-08T07:38:35.964Z,5.21
2022-11-08T07:41:02.566Z,5.53
2022-11-08T07:43:30.143Z,5.44
2022-11-08T07:45:59.666Z,5.61
2022-11-08T07:48:28.364Z,5.40
2022-11-08T07:50:55.809Z,5.34
2022-11-08T07:53:23.054Z,5.35
2022-11-08T07:55:49.654Z,5.13
2022-11-08T07:58:16.267Z,5.48
2022-11-08T08:00:44.761Z,5.23
2022-11-08T08:03:14.646Z,4.66
2022-11-08T08:05:43.878Z,5.02
2022-11-08T08:08:13.102Z,5.14
2022-11-08T08:10:40.445Z,5.44
2022-11-08T08:13:07.222Z,5.70
2022-11-08T08:15:33.824Z,5.99
2022-11-08T08:18:02.359Z,5.83
2022-11-08T08:20:30.010Z,5.99
2022-11-08T08:22:56.729Z,5.89
2022-11-08T08:25:23.776Z,5.92
2022-11-08T08:27:56.087Z,5.80
2022-11-08T08:30:24.298Z,6.01
2022-11-08T08:33:08.314Z,5.97
2022-11-08T08:35:38.279Z,6.04
2022-11-08T08:38:06.571Z,5.78
2022-11-08T08:40:34.041Z,5.84
2022-11-08T08:43:01.292Z,5.60
2022-11-08T08:45:28.211Z,6.11
2022-11-08T08:47:56.539Z,6.21
2022-11-08T08:50:24.097Z,5.85
2022-11-08T08:52:50.711Z,5.92
2022-11-08T08:55:17.725Z,5.67
2022-11-08T08:57:48.108Z,5.62
2022-11-08T09:03:05.056Z,5.29
2022-11-08T09:05:32.454Z,6.04
2022-11-08T09:07:59.183Z,6.40
2022-11-08T09:10:26.733Z,6.22
2022-11-08T09:12:53.705Z,6.57
2022-11-08T09:15:20.428Z,6.61
2022-11-08T09:17:47.043Z,6.67
2022-11-08T09:20:14.093Z,6.55
2022-11-08T09:22:40.696Z,6.39
2022-11-08T09:25:07.599Z,6.58
2022-11-08T09:27:34.187Z,6.88
2022-11-08T09:30:00.779Z,6.37
2022-11-08T09:32:39.602Z,7.05
2022-11-08T09:35:14.038Z,7.27
2022-11-08T09:37:43.144Z,7.09
2022-11-08T09:43:38.313Z,6.84
2022-11-08T09:46:10.081Z,7.05
2022-11-08T09:48:42.856Z,7.10
2022-11-08T09:51:20.450Z,7.08
2022-11-08T09:53:57.362Z,7.25
2022-11-08T09:56:28.930Z,7.37
2022-11-08T09:58:59.318Z,7.37
2022-11-08T10:01:27.559Z,7.64
2022-11-08T10:03:58.231Z,7.67
2022-11-08T10:07:02.133Z,7.31
2022-11-08T10:09:56.501Z,7.25
2022-11-08T10:12:33.075Z,7.35
2022-11-08T10:15:27.317Z,7.58
2022-11-08T10:18:03.004Z,7.82
2022-11-08T10:20:35.425Z,7.50
2022-11-08T10:23:21.203Z,7.76
2022-11-08T10:25:53.208Z,7.82
2022-11-08T10:28:25.827Z,7.81
2022-11-08T10:30:53.925Z,7.50
2022-11-08T10:33:25.684Z,7.92
2022-11-08T10:36:06.655Z,8.14
2022-11-08T10:38:54.968Z,8.37
2022-11-08T10:41:26.079Z,8.62
2022-11-08T10:44:09.059Z,8.75
2022-11-08T10:46:57.083Z,8.83
2022-11-08T10:49:34.728Z,8.81
2022-11-08T10:52:13.067Z,9.05
2022-11-08T10:54:56.681Z,9.22
2022-11-08T10:57:42.873Z,9.23
2022-11-08T11:00:21.680Z,9.29
2022-11-08T11:02:52.989Z,9.35
2022-11-08T11:05:26.468Z,9.60
2022-11-08T11:07:56.211Z,9.98
2022-11-08T11:10:47.272Z,9.95
2022-11-08T11:13:13.846Z,9.67
2022-11-08T11:16:00.223Z,9.95
2022-11-08T11:18:37.002Z,10.13
2022-11-08T11:21:21.573Z,10.31
2022-11-08T11:23:51.590Z,10.38
2022-11-08T11:26:27.173Z,10.58
2022-11-08T11:29:05.701Z,10.26
2022-11-08T11:31:37.271Z,10.79
2022-11-08T11:34:35.761Z,10.87
2022-11-08T11:37:11.477Z,10.84
2022-11-08T11:39:52.253Z,10.64
2022-11-08T11:42:46.263Z,10.69
2022-11-08T11:45:34.023Z,10.67
2022-11-08T11:48:16.509Z,10.91
2022-11-08T11:50:48.903Z,10.93
2022-11-08T11:53:22.158Z,10.98
2022-11-08T11:55:57.811Z,11.31
2022-11-08T11:58:58.014Z,11.20
2022-11-08T12:01:47.923Z,11.25
2022-11-08T12:04:48.594Z,11.31
2022-11-08T12:07:19.673Z,11.43
2022-11-08T12:10:01.540Z,11.39
2022-11-08T12:12:38.220Z,11.58
2022-11-08T12:15:23.558Z,11.69
2022-11-08T12:18:36.687Z,11.54
2022-11-08T12:21:39.512Z,11.83
2022-11-08T12:24:21.168Z,11.87
2022-11-08T12:27:10.029Z,11.89
2022-11-08T12:30:05.737Z,12.09
2022-11-08T12:32:44.315Z,12.43
2022-11-08T12:35:17.053Z,12.32
2022-11-08T12:37:43.582Z,12.41
2022-11-08T12:40:22.096Z,12.48
2022-11-08T12:43:13.573Z,12.17
2022-11-08T12:46:07.985Z,12.20
2022-11-08T12:48:46.287Z,12.30
2022-11-08T12:51:28.726Z,12.32
2022-11-08T12:53:55.239Z,12.27
2022-11-08T12:56:28.227Z,12.41
2022-11-08T12:58:56.501Z,12.24
2022-11-08T13:01:23.655Z,12.00
2022-11-08T13:04:12.050Z,12.01
2022-11-08T13:06:50.475Z,11.88
2022-11-08T13:09:56.638Z,11.84
2022-11-08T13:12:44.532Z,11.95
2022-11-08T13:15:20.518Z,11.85
2022-11-08T13:18:08.708Z,11.68
2022-11-08T13:20:42.896Z,11.62
2022-11-08T13:23:14.795Z,11.41
2022-11-08T13:25:43.275Z,11.41
2022-11-08T13:28:35.688Z,11.45
2022-11-08T13:31:29.932Z,11.20
2022-11-08T13:34:07.399Z,11.23
2022-11-08T13:36:46.072Z,11.25
2022-11-08T13:39:24.582Z,11.20
2022-11-08T13:42:17.511Z,11.14
2022-11-08T13:44:56.114Z,11.17
2022-11-08T13:47:42.880Z,11.03
2022-11-08T13:50:27.429Z,11.29
2022-11-08T13:53:18.767Z,10.90
2022-11-08T13:56:35.907Z,11.18
2022-11-08T13:59:02.539Z,11.09
2022-11-08T14:01:30.708Z,10.91
2022-11-08T14:04:00.545Z,10.87
2022-11-08T14:06:46.000Z,10.80
2022-11-08T14:09:35.237Z,10.81
2022-11-08T14:12:10.532Z,10.65
2022-11-08T14:14:55.566Z,10.55
2022-11-08T14:17:34.135Z,10.61
2022-11-08T14:20:39.439Z,10.36
2022-11-08T14:23:18.331Z,10.24
2022-11-08T14:25:54.831Z,10.06
2022-11-08T14:28:34.634Z,10.11
2022-11-08T14:31:04.908Z,10.08
2022-11-08T14:33:33.345Z,9.94
2022-11-08T14:36:06.609Z,9.92
2022-11-08T14:38:45.585Z,9.69
2022-11-08T14:41:21.886Z,9.44
2022-11-08T14:43:51.248Z,9.56
2022-11-08T14:46:34.577Z,9.62
2022-11-08T14:49:13.200Z,9.51
2022-11-08T14:51:40.759Z,9.33
2022-11-08T14:54:19.568Z,9.27
2022-11-08T14:56:46.924Z,9.26
2022-11-08T14:59:14.493Z,9.19
2022-11-08T15:01:45.477Z,9.05
2022-11-08T15:04:18.382Z,9.25
2022-11-08T15:06:49.222Z,9.42
2022-11-08T15:09:22.159Z,9.07
2022-11-08T15:11:53.136Z,9.13
2022-11-08T15:14:23.219Z,9.12
2022-11-08T15:16:52.679Z,9.17
2022-11-08T15:19:20.414Z,9.19
2022-11-08T15:21:48.567Z,9.43
2022-11-08T15:24:16.892Z,9.34
2022-11-08T15:27:18.827Z,9.14
2022-11-08T15:30:09.485Z,8.87
2022-11-08T15:32:38.901Z,8.73
2022-11-08T15:35:07.654Z,8.97
2022-11-08T15:37:37.822Z,8.98
2022-11-08T15:40:26.655Z,8.85
2022-11-08T15:42:53.239Z,8.97
2022-11-08T15:45:28.546Z,8.84
2022-11-08T15:48:23.126Z,8.85
2022-11-08T15:50:50.206Z,9.00
2022-11-08T15:53:17.004Z,8.84
2022-11-08T15:55:52.439Z,8.99
2022-11-08T15:58:35.032Z,8.77
2022-11-08T16:01:03.430Z,8.62
2022-11-08T16:03:30.661Z,8.92
2022-11-08T16:05:57.865Z,8.94
2022-11-08T16:08:24.836Z,8.79
2022-11-08T16:10:54.134Z,8.85
2022-11-08T16:13:26.716Z,9.01
2022-11-08T16:15:53.318Z,8.94
2022-11-08T16:18:20.556Z,9.06
2022-11-08T16:20:47.515Z,8.90
2022-11-08T16:23:14.311Z,9.01
2022-11-08T16:25:44.773Z,8.81
2022-11-08T16:28:31.179Z,8.79
2022-11-08T16:30:57.758Z,8.86
2022-11-08T16:33:26.807Z,8.99
2022-11-08T16:36:02.322Z,9.24
2022-11-08T16:38:33.904Z,9.11
2022-11-08T16:41:01.259Z,8.90
2022-11-08T16:43:27.880Z,8.70
2022-11-08T16:46:10.437Z,8.60
2022-11-08T16:48:39.904Z,8.82
2022-11-08T16:51:16.040Z,8.94
2022-11-08T16:53:42.653Z,9.15
2022-11-08T16:56:09.337Z,9.19
2022-11-08T16:58:35.947Z,9.21
2022-11-08T17:01:10.009Z,8.85
2022-11-08T17:03:37.159Z,9.00
2022-11-08T17:06:03.842Z,9.06
2022-11-08T17:08:30.482Z,9.12
2022-11-08T17:10:57.077Z,9.11
2022-11-08T17:13:23.851Z,9.01
2022-11-08T17:15:50.776Z,8.85
2022-11-08T17:18:20.454Z,9.18
2022-11-08T17:20:47.308Z,8.99
2022-11-08T17:23:13.947Z,8.77
2022-11-08T17:25:41.249Z,8.97
2022-11-08T17:28:07.834Z,8.74
2022-11-08T17:30:34.452Z,8.84
2022-11-08T17:33:01.413Z,8.91
2022-11-08T17:35:28.052Z,8.91
2022-11-08T17:37:54.643Z,9.13
2022-11-08T17:40:21.214Z,8.99
2022-11-08T17:42:47.852Z,9.07
2022-11-08T17:45:14.452Z,9.07
2022-11-08T17:47:41.040Z,8.87
2022-11-08T17:50:08.055Z,8.82
2022-11-08T17:52:34.633Z,8.79
2022-11-08T17:55:01.289Z,8.73
2022-11-08T17:57:28.045Z,8.74
2022-11-08T17:59:54.679Z,8.88
2022-11-08T18:02:21.893Z,8.85
2022-11-08T18:04:48.609Z,8.84
2022-11-08T18:07:15.306Z,8.89
2022-11-08T18:09:41.933Z,8.91
2022-11-08T18:12:08.553Z,9.15
2022-11-08T18:14:35.247Z,8.84
2022-11-08T18:17:01.837Z,9.09
2022-11-08T18:19:28.523Z,8.95
2022-11-08T18:21:55.243Z,8.99
2022-11-08T18:24:21.833Z,8.88
2022-11-08T18:26:48.418Z,8.89
2022-11-08T18:29:15.020Z,8.82
2022-11-08T18:31:41.631Z,8.86
2022-11-08T18:34:08.290Z,8.95
2022-11-08T18:36:37.008Z,8.95
2022-11-08T18:39:03.694Z,9.18
2022-11-08T18:41:32.433Z,8.97
2022-11-08T18:44:00.249Z,9.22
2022-11-08T18:46:31.438Z,9.17
2022-11-08T18:48:58.272Z,9.14
2022-11-08T18:51:24.932Z,9.15
2022-11-08T18:53:51.804Z,9.12
2022-11-08T18:56:18.709Z,9.05
2022-11-08T18:58:45.406Z,8.92
2022-11-08T19:01:12.712Z,9.02
2022-11-08T19:03:39.453Z,9.07
2022-11-08T19:06:06.644Z,9.13
2022-11-08T19:08:33.894Z,9.15
2022-11-08T19:11:03.814Z,9.00
2022-11-08T19:13:33.218Z,9.04
2022-11-08T19:16:26.099Z,9.19
2022-11-08T19:18:52.722Z,9.12
2022-11-08T19:21:24.817Z,9.19
2022-11-08T19:23:52.533Z,9.26
2022-11-08T19:26:24.234Z,9.32
2022-11-08T19:28:53.960Z,9.24
2022-11-08T19:31:23.323Z,9.19
2022-11-08T19:33:52.843Z,8.92
2022-11-08T19:36:22.641Z,9.17
2022-11-08T19:38:49.492Z,8.96
2022-11-08T19:41:18.955Z,8.96
2022-11-08T19:43:47.153Z,9.23
2022-11-08T19:46:15.535Z,9.37
2022-11-08T19:48:44.156Z,9.19
2022-11-08T19:51:21.756Z,9.28
2022-11-08T19:53:49.056Z,9.22
2022-11-08T19:56:18.853Z,9.24
2022-11-08T19:58:46.062Z,9.25
2022-11-08T20:01:19.233Z,9.40
2022-11-08T20:03:46.631Z,9.35
2022-11-08T20:06:14.837Z,9.06
2022-11-08T20:08:41.459Z,8.97
2022-11-08T20:11:17.004Z,9.05
2022-11-08T20:13:44.108Z,9.08
2022-11-08T20:16:11.544Z,9.17
2022-11-08T20:18:38.365Z,9.33
2022-11-08T20:21:06.677Z,9.66
2022-11-08T20:23:33.642Z,9.60
2022-11-08T20:26:01.364Z,9.42
2022-11-08T20:28:28.929Z,9.39
2022-11-08T20:31:06.876Z,9.59
2022-11-08T20:33:35.931Z,9.45
2022-11-08T20:36:07.923Z,9.50
2022-11-08T20:38:34.908Z,9.42
2022-11-08T20:41:01.521Z,9.20
2022-11-08T20:43:28.944Z,9.18
2022-11-08T20:46:07.611Z,9.28
2022-11-08T20:48:34.781Z,9.05
2022-11-08T20:51:03.387Z,8.76
2022-11-08T20:53:35.780Z,9.05
2022-11-08T20:56:05.750Z,9.23
2022-11-08T20:58:34.473Z,9.08
2022-11-08T21:01:03.017Z,9.23
2022-11-08T21:03:30.192Z,9.03
2022-11-08T21:06:04.832Z,9.22
2022-11-08T21:11:19.468Z,9.49
2022-11-08T21:13:47.015Z,9.15
2022-11-08T21:16:29.362Z,9.08
2022-11-08T21:18:57.933Z,9.06
2022-11-08T21:21:25.789Z,9.00
2022-11-08T21:23:52.402Z,8.95
2022-11-08T21:26:19.568Z,8.76
2022-11-08T21:28:47.069Z,9.21
2022-11-08T21:31:14.046Z,9.06
2022-11-08T21:33:40.925Z,9.11
2022-11-08T21:36:08.222Z,9.19
2022-11-08T21:38:38.621Z,9.22
2022-11-08T21:41:07.521Z,9.18
2022-11-08T21:43:39.463Z,9.02
2022-11-08T21:46:16.490Z,8.86
2022-11-08T21:48:43.099Z,8.74
2022-11-08T21:51:09.807Z,8.43
2022-11-08T21:53:42.931Z,8.58
2022-11-08T21:56:15.246Z,8.66
2022-11-08T21:58:41.852Z,8.72
2022-11-08T22:01:08.530Z,8.55
2022-11-08T22:03:35.543Z,8.82
2022-11-08T22:06:02.327Z,8.59
2022-11-08T22:08:29.034Z,8.36
2022-11-08T22:10:55.634Z,8.63
2022-11-08T22:13:22.250Z,8.45
2022-11-08T22:15:48.971Z,8.60
2022-11-08T22:18:19.762Z,8.86
2022-11-08T22:20:58.451Z,8.85
2022-11-08T22:23:25.047Z,8.88
2022-11-08T22:25:51.717Z,8.85
2022-11-08T22:28:18.593Z,8.99
2022-11-08T22:30:50.324Z,8.89
2022-11-08T22:33:17.069Z,9.06
2022-11-08T22:35:45.173Z,8.93
2022-11-08T22:38:11.896Z,8.85
2022-11-08T22:40:40.350Z,8.83
2022-11-08T22:43:07.324Z,8.89
2022-11-08T22:45:41.776Z,8.68
2022-11-08T22:48:09.280Z,8.91
2022-11-08T22:50:36.971Z,8.60
2022-11-08T22:53:03.620Z,8.56
2022-11-08T22:55:30.225Z,8.44
2022-11-08T22:57:56.860Z,8.65
2022-11-08T23:00:23.459Z,8.77
2022-11-08T23:02:50.173Z,8.64
2022-11-08T23:05:16.858Z,8.67
2022-11-08T23:07:43.529Z,8.83
2022-11-08T23:10:10.287Z,8.63
2022-11-08T23:12:36.872Z,8.63
2022-11-08T23:15:03.626Z,8.52
2022-11-08T23:17:30.634Z,8.92
2022-11-08T23:19:57.227Z,9.03
2022-11-08T23:22:23.958Z,9.03
2022-11-08T23:24:50.723Z,9.12
2022-11-08T23:27:19.087Z,8.77
2022-11-08T23:29:46.599Z,8.19
2022-11-08T23:32:13.193Z,8.41
2022-11-08T23:34:39.840Z,8.56
2022-11-08T23:37:06.432Z,8.42
2022-11-08T23:39:33.075Z,8.43
2022-11-08T23:41:59.689Z,8.49
2022-11-08T23:44:26.282Z,8.55
2022-11-08T23:46:55.101Z,8.60
2022-11-08T23:49:21.876Z,8.75
2022-11-08T23:51:48.553Z,8.77
2022-11-08T23:54:15.376Z,8.67
2022-11-08T23:56:42.405Z,8.54
2022-11-08T23:59:10.343Z,8.58
